Time;durP1;ratioP1;P1;durP2;ratioP2;P2;SDS_P1;SDS_P2;PMS_P1;PMS_P2;Temp;Humidity;BMP_temperature;BMP_pressure;BME280_temperature;BME280_humidity;BME280_pressure;Samples;Min_cycle;Max_cycle;Signal;HPM_P1;HPM_P2
2023/06/10 00:00:45;;;;;;;14.07;13.47;;;20.90;99.90;;;;;;5037251;28;20798;-84
2023/06/10 00:03:14;;;;;;;14.13;13.40;;;20.90;99.90;;;;;;5037495;28;20468;-84
2023/06/10 00:05:42;;;;;;;14.67;13.93;;;20.80;99.90;;;;;;5035848;28;20501;-84
2023/06/10 00:08:12;;;;;;;14.37;13.67;;;20.80;99.90;;;;;;5054741;28;21018;-85
2023/06/10 00:10:40;;;;;;;14.07;13.37;;;20.80;99.90;;;;;;5035052;28;20478;-85
2023/06/10 00:13:08;;;;;;;14.27;13.47;;;20.80;99.90;;;;;;5058051;28;20568;-85
2023/06/10 00:15:36;;;;;;;14.40;13.80;;;20.80;99.90;;;;;;5071612;28;20471;-86
2023/06/10 00:18:05;;;;;;;14.70;13.90;;;20.80;99.90;;;;;;5037901;28;20462;-85
2023/06/10 00:20:35;;;;;;;13.97;13.37;;;20.80;99.90;;;;;;5055695;28;20462;-84
2023/06/10 00:23:06;;;;;;;14.63;13.50;;;20.80;99.90;;;;;;5058128;28;21275;-84
2023/06/10 00:25:36;;;;;;;13.90;13.27;;;20.70;99.90;;;;;;5059730;28;20485;-86
2023/06/10 00:28:04;;;;;;;14.70;13.90;;;20.70;99.90;;;;;;5057839;28;20478;-84
2023/06/10 00:30:33;;;;;;;15.13;14.33;;;20.70;99.90;;;;;;5058310;28;20471;-86
2023/06/10 00:33:01;;;;;;;14.20;13.40;;;20.60;99.90;;;;;;5056734;28;20565;-85
2023/06/10 00:35:29;;;;;;;15.00;14.13;;;20.60;99.90;;;;;;5040192;28;20472;-85
2023/06/10 00:37:57;;;;;;;14.00;13.40;;;20.60;99.90;;;;;;5058154;28;20534;-84
2023/06/10 00:40:25;;;;;;;14.30;13.53;;;20.70;99.90;;;;;;5056054;28;20456;-84
2023/06/10 00:42:55;;;;;;;14.60;14.00;;;20.70;99.90;;;;;;5053262;28;20465;-85
2023/06/10 00:45:24;;;;;;;14.50;13.87;;;20.60;99.90;;;;;;5051682;28;20524;-85
2023/06/10 00:47:52;;;;;;;13.53;13.03;;;20.60;99.90;;;;;;5053339;28;20465;-84
2023/06/10 00:50:21;;;;;;;13.60;13.00;;;20.60;99.90;;;;;;5034867;28;21253;-84
2023/06/10 00:52:50;;;;;;;14.80;14.03;;;20.60;99.90;;;;;;5053266;28;20483;-84
2023/06/10 00:55:23;;;;;;;14.37;13.73;;;20.60;99.90;;;;;;5053918;28;20458;-85
2023/06/10 00:57:52;;;;;;;14.00;13.40;;;20.50;99.90;;;;;;5053751;28;20517;-85
2023/06/10 01:00:22;;;;;;;14.00;13.40;;;20.50;99.90;;;;;;5054450;28;20506;-85
2023/06/10 01:02:52;;;;;;;13.90;13.30;;;20.50;99.90;;;;;;5054093;28;21088;-84
2023/06/10 01:05:21;;;;;;;14.47;13.77;;;20.50;99.90;;;;;;5059209;28;20459;-84
2023/06/10 01:07:55;;;;;;;14.67;14.07;;;20.50;99.90;;;;;;5057156;28;20482;-85
2023/06/10 01:10:29;;;;;;;14.63;13.93;;;20.50;99.90;;;;;;5057645;28;20467;-85
2023/06/10 01:13:02;;;;;;;14.30;13.80;;;20.50;99.90;;;;;;5053922;28;20462;-84
2023/06/10 01:15:32;;;;;;;13.90;13.40;;;20.50;99.90;;;;;;5055809;28;20458;-84
2023/06/10 01:18:02;;;;;;;13.47;12.97;;;20.50;99.90;;;;;;5070978;28;20558;-85
2023/06/10 01:20:32;;;;;;;14.50;13.90;;;20.40;99.90;;;;;;5055424;28;20453;-85
2023/06/10 01:23:03;;;;;;;15.00;14.30;;;20.40;99.90;;;;;;5056512;28;20446;-86
2023/06/10 01:25:36;;;;;;;15.43;14.53;;;20.30;99.90;;;;;;5055368;28;20561;-85
2023/06/10 01:28:11;;;;;;;14.80;14.10;;;20.30;99.90;;;;;;5058234;28;20793;-85
2023/06/10 01:30:45;;;;;;;14.83;14.07;;;20.30;99.90;;;;;;5058081;28;20453;-84
2023/06/10 01:33:17;;;;;;;15.30;14.60;;;20.30;99.90;;;;;;5056858;28;20848;-85
2023/06/10 01:35:47;;;;;;;14.80;14.00;;;20.30;99.90;;;;;;5069301;28;20506;-85
2023/06/10 01:38:20;;;;;;;14.60;13.90;;;20.20;99.90;;;;;;5046322;28;20455;-84
2023/06/10 01:40:50;;;;;;;15.70;14.83;;;20.20;99.90;;;;;;5056948;28;20455;-86
2023/06/10 01:43:18;;;;;;;13.80;13.10;;;20.20;99.90;;;;;;5056020;28;20455;-85
2023/06/10 01:45:46;;;;;;;14.87;14.17;;;20.10;99.90;;;;;;5055634;28;21030;-86
2023/06/10 01:48:15;;;;;;;15.17;14.47;;;20.10;99.90;;;;;;5055881;28;20447;-86
2023/06/10 01:50:44;;;;;;;14.80;14.20;;;20.10;99.90;;;;;;5073510;28;20521;-84
2023/06/10 01:53:12;;;;;;;15.50;14.70;;;19.90;99.90;;;;;;5040557;28;20486;-85
2023/06/10 01:55:42;;;;;;;15.40;14.70;;;19.90;99.90;;;;;;5059483;28;20490;-86
2023/06/10 01:58:10;;;;;;;16.23;15.33;;;19.80;99.90;;;;;;5056257;28;21020;-85
2023/06/10 02:00:38;;;;;;;15.20;14.53;;;19.80;99.90;;;;;;5043129;28;20983;-86
2023/06/10 02:03:06;;;;;;;16.00;15.10;;;19.70;99.90;;;;;;5056845;28;20454;-86
2023/06/10 02:05:34;;;;;;;16.33;15.53;;;19.60;99.90;;;;;;5060337;28;20454;-87
2023/06/10 02:08:03;;;;;;;16.30;15.50;;;19.50;99.90;;;;;;5074832;28;20454;-87
2023/06/10 02:10:31;;;;;;;16.40;15.60;;;19.50;99.90;;;;;;5061925;28;20450;-85
2023/06/10 02:13:00;;;;;;;16.67;15.87;;;19.50;99.90;;;;;;5058662;28;20578;-85
2023/06/10 02:15:29;;;;;;;17.37;16.47;;;19.40;99.90;;;;;;5039196;28;20447;-86
2023/06/10 02:17:57;;;;;;;16.83;15.93;;;19.40;99.90;;;;;;5058572;28;20451;-86
2023/06/10 02:20:26;;;;;;;16.30;15.60;;;19.20;99.90;;;;;;5055622;28;20483;-85
2023/06/10 02:22:54;;;;;;;15.87;15.00;;;19.20;99.90;;;;;;5058220;28;20534;-84
2023/06/10 02:25:22;;;;;;;17.83;16.83;;;19.20;99.90;;;;;;5059337;28;20450;-87
2023/06/10 02:27:50;;;;;;;16.97;16.07;;;19.20;99.90;;;;;;5060592;28;20517;-85
2023/06/10 02:30:20;;;;;;;16.20;15.40;;;19.20;99.90;;;;;;5065218;28;20818;-85
2023/06/10 02:32:48;;;;;;;17.10;16.30;;;19.20;99.90;;;;;;5060474;28;20483;-86
2023/06/10 02:35:17;;;;;;;16.70;15.90;;;19.20;99.90;;;;;;5075226;28;20451;-84
2023/06/10 02:37:45;;;;;;;16.43;15.70;;;19.10;99.90;;;;;;5072682;28;20477;-85
2023/06/10 02:40:13;;;;;;;16.57;15.67;;;19.00;99.90;;;;;;5049433;28;20467;-85
2023/06/10 02:42:41;;;;;;;16.07;15.37;;;19.00;99.90;;;;;;5058470;28;20440;-86
2023/06/10 02:45:10;;;;;;;15.90;15.20;;;19.00;99.90;;;;;;5083656;28;20849;-86
2023/06/10 02:47:40;;;;;;;15.57;14.97;;;18.90;99.90;;;;;;5062768;28;20479;-83
2023/06/10 02:50:09;;;;;;;16.90;15.80;;;18.90;99.90;;;;;;5058564;28;20465;-86
2023/06/10 02:52:37;;;;;;;17.60;16.60;;;18.90;99.90;;;;;;5059816;28;20479;-84
2023/06/10 02:55:06;;;;;;;16.63;15.83;;;18.70;99.90;;;;;;5036602;28;20460;-87
2023/06/10 02:57:34;;;;;;;18.10;17.20;;;18.70;99.90;;;;;;5061700;28;20479;-85
2023/06/10 03:00:09;;;;;;;17.60;16.60;;;18.70;99.90;;;;;;5060528;28;21085;-86
2023/06/10 03:02:38;;;;;;;17.30;16.47;;;18.60;99.90;;;;;;5057557;28;21163;-87
2023/06/10 03:05:09;;;;;;;18.27;17.27;;;18.60;99.90;;;;;;5057671;28;20447;-85
2023/06/10 03:07:40;;;;;;;17.10;16.20;;;18.50;99.90;;;;;;5059600;28;20486;-86
2023/06/10 03:10:09;;;;;;;17.50;16.60;;;18.60;99.90;;;;;;5058907;28;20547;-85
2023/06/10 03:12:37;;;;;;;17.83;16.80;;;18.60;99.90;;;;;;5058304;28;20464;-84
2023/06/10 03:15:06;;;;;;;17.60;16.60;;;18.60;99.90;;;;;;5058717;28;20465;-84
2023/06/10 03:17:35;;;;;;;17.10;16.20;;;18.60;99.90;;;;;;5056930;28;20482;-84
2023/06/10 03:20:05;;;;;;;16.17;15.47;;;18.60;99.90;;;;;;5063201;28;20454;-85
2023/06/10 03:22:34;;;;;;;17.00;15.97;;;18.50;99.90;;;;;;5061960;28;21074;-86
2023/06/10 03:25:03;;;;;;;17.43;16.53;;;18.50;99.90;;;;;;5042553;28;20463;-85
2023/06/10 03:27:31;;;;;;;17.23;16.33;;;18.40;99.90;;;;;;5061571;28;20566;-86
2023/06/10 03:29:59;;;;;;;17.47;16.47;;;18.40;99.90;;;;;;5054463;28;20459;-86
2023/06/10 03:32:27;;;;;;;17.40;16.50;;;18.50;99.90;;;;;;5071571;28;20474;-86
2023/06/10 03:34:57;;;;;;;16.73;15.70;;;18.50;99.90;;;;;;5058885;28;20489;-86
2023/06/10 03:37:25;;;;;;;16.83;16.07;;;18.50;99.90;;;;;;5055027;28;20975;-85
2023/06/10 03:39:55;;;;;;;17.37;16.30;;;18.50;99.90;;;;;;5054002;28;20551;-85
2023/06/10 03:42:23;;;;;;;16.17;15.37;;;18.40;99.90;;;;;;5052251;28;20495;-85
2023/06/10 03:44:51;;;;;;;16.10;15.30;;;18.50;99.90;;;;;;5070881;28;20519;-86
2023/06/10 03:47:20;;;;;;;16.37;15.33;;;18.40;99.90;;;;;;5052198;28;20503;-85
2023/06/10 03:49:48;;;;;;;16.50;15.70;;;18.40;99.90;;;;;;5054781;28;20446;-86
2023/06/10 03:52:16;;;;;;;16.60;15.73;;;18.30;99.90;;;;;;5057966;28;20486;-86
2023/06/10 03:54:44;;;;;;;17.57;16.47;;;18.30;99.90;;;;;;5040150;28;20482;-86
2023/06/10 03:57:14;;;;;;;16.53;15.70;;;18.30;99.90;;;;;;5053435;28;20491;-88
2023/06/10 03:59:42;;;;;;;17.90;16.83;;;18.20;99.90;;;;;;5058728;28;20578;-87
2023/06/10 04:02:11;;;;;;;16.93;16.03;;;18.20;99.90;;;;;;5055731;28;20775;-86
2023/06/10 04:04:40;;;;;;;16.40;15.60;;;18.10;99.90;;;;;;5059449;28;20487;-86
2023/06/10 04:07:09;;;;;;;17.03;16.23;;;18.10;99.90;;;;;;5072028;28;20483;-85
2023/06/10 04:09:37;;;;;;;17.80;16.87;;;18.10;99.90;;;;;;5055321;28;20979;-85
2023/06/10 04:12:08;;;;;;;18.73;17.57;;;18.10;99.90;;;;;;5056122;28;20479;-86
2023/06/10 04:14:38;;;;;;;17.07;16.17;;;18.10;99.90;;;;;;5056452;28;20531;-86
2023/06/10 04:17:07;;;;;;;17.00;16.10;;;18.20;99.90;;;;;;5060240;28;21297;-86
2023/06/10 04:19:35;;;;;;;16.47;15.77;;;18.20;99.90;;;;;;5063750;28;20459;-86
2023/06/10 04:22:05;;;;;;;17.20;16.30;;;18.20;99.90;;;;;;5056362;28;20471;-86
2023/06/10 04:24:33;;;;;;;17.87;16.97;;;18.30;99.90;;;;;;5062014;28;20975;-86
2023/06/10 04:27:01;;;;;;;16.47;15.37;;;18.40;99.90;;;;;;5061109;28;20482;-85
2023/06/10 04:29:29;;;;;;;15.83;15.13;;;18.40;99.90;;;;;;5059708;28;20461;-86
2023/06/10 04:31:58;;;;;;;16.27;15.47;;;18.40;99.90;;;;;;5058513;28;20551;-86
2023/06/10 04:34:27;;;;;;;15.60;14.80;;;18.50;99.90;;;;;;5074971;28;20516;-86
2023/06/10 04:36:55;;;;;;;15.07;14.33;;;18.60;99.90;;;;;;5054292;28;20463;-85
2023/06/10 04:39:24;;;;;;;16.00;15.30;;;18.60;99.90;;;;;;5068683;28;20456;-85
2023/06/10 04:41:52;;;;;;;16.70;15.70;;;18.60;99.90;;;;;;5054484;28;20459;-85
2023/06/10 04:44:21;;;;;;;15.43;14.57;;;18.60;99.90;;;;;;5058317;28;20443;-85
2023/06/10 04:46:49;;;;;;;15.40;14.70;;;18.70;99.90;;;;;;5049979;28;20545;-85
2023/06/10 04:49:19;;;;;;;15.77;14.90;;;18.70;99.90;;;;;;5055218;28;20456;-84
2023/06/10 04:51:47;;;;;;;16.53;15.70;;;18.70;99.90;;;;;;5054584;28;20439;-85
2023/06/10 04:54:15;;;;;;;15.60;14.60;;;18.70;99.90;;;;;;5058881;28;20498;-84
2023/06/10 04:56:44;;;;;;;16.53;15.63;;;18.80;99.90;;;;;;5053768;28;20565;-84
2023/06/10 04:59:12;;;;;;;17.67;16.60;;;18.90;99.90;;;;;;5069105;28;20467;-84
2023/06/10 05:01:40;;;;;;;18.23;17.23;;;18.90;99.90;;;;;;5053785;28;20495;-85
2023/06/10 05:04:08;;;;;;;19.20;18.20;;;18.90;99.90;;;;;;5052329;28;20455;-85
2023/06/10 05:06:38;;;;;;;18.07;17.10;;;18.90;99.90;;;;;;5034384;28;20586;-85
2023/06/10 05:09:06;;;;;;;19.17;18.17;;;18.90;99.90;;;;;;5056473;28;20487;-86
2023/06/10 05:11:34;;;;;;;17.70;16.80;;;18.80;99.90;;;;;;5052557;28;20446;-85
2023/06/10 05:14:02;;;;;;;17.43;16.63;;;18.90;99.90;;;;;;5057543;28;20569;-86
2023/06/10 05:16:30;;;;;;;17.97;17.20;;;19.00;99.90;;;;;;5053280;28;20482;-86
2023/06/10 05:18:59;;;;;;;16.90;16.10;;;19.00;99.90;;;;;;5036667;28;20454;-86
2023/06/10 05:21:27;;;;;;;15.80;15.07;;;19.00;99.90;;;;;;5067138;28;20466;-86
2023/06/10 05:23:57;;;;;;;15.93;15.23;;;19.10;99.90;;;;;;5054290;28;20462;-86
2023/06/10 05:26:25;;;;;;;15.27;14.67;;;19.20;99.90;;;;;;5053194;28;20606;-86
2023/06/10 05:28:53;;;;;;;22.93;21.30;;;19.20;99.90;;;;;;5070600;28;20451;-86
2023/06/10 05:31:22;;;;;;;15.73;15.03;;;19.30;99.90;;;;;;5036362;28;20498;-85
2023/06/10 05:33:50;;;;;;;15.10;14.40;;;19.40;99.90;;;;;;5040805;28;20463;-86
2023/06/10 05:36:18;;;;;;;18.23;17.27;;;19.40;99.90;;;;;;5055547;28;20906;-86
2023/06/10 05:38:47;;;;;;;16.67;15.77;;;19.40;99.90;;;;;;5033266;28;22528;-86
2023/06/10 05:41:16;;;;;;;16.20;15.40;;;19.50;99.90;;;;;;5052872;28;20459;-87
2023/06/10 05:43:45;;;;;;;16.00;15.30;;;19.50;99.90;;;;;;5068524;28;20489;-86
2023/06/10 05:46:13;;;;;;;15.20;14.67;;;19.60;99.90;;;;;;5051765;28;20557;-87
2023/06/10 05:48:42;;;;;;;15.80;15.17;;;19.60;99.90;;;;;;5052153;28;21062;-87
2023/06/10 05:51:10;;;;;;;16.30;15.50;;;19.70;99.90;;;;;;5054707;28;20466;-87
2023/06/10 05:53:39;;;;;;;17.00;16.20;;;19.70;99.90;;;;;;5052911;28;20478;-87
2023/06/10 05:56:08;;;;;;;15.50;14.83;;;19.70;99.90;;;;;;5050771;28;20479;-87
2023/06/10 05:58:37;;;;;;;17.60;16.70;;;19.80;99.90;;;;;;5053447;28;20463;-87
2023/06/10 06:01:05;;;;;;;17.17;16.27;;;19.80;99.90;;;;;;5052263;28;20442;-87
2023/06/10 06:03:34;;;;;;;17.50;16.63;;;19.90;99.90;;;;;;5038271;28;20463;-87
2023/06/10 06:06:04;;;;;;;16.77;16.10;;;19.90;99.90;;;;;;5065232;28;21077;-86
2023/06/10 06:08:32;;;;;;;17.27;16.47;;;20.00;99.90;;;;;;5049793;28;20799;-85
2023/06/10 06:11:00;;;;;;;16.90;16.20;;;20.00;99.90;;;;;;5053237;28;20454;-85
2023/06/10 06:13:28;;;;;;;17.10;16.37;;;20.00;99.90;;;;;;5052369;28;20456;-85
2023/06/10 06:15:58;;;;;;;16.60;15.90;;;20.10;99.90;;;;;;5054728;28;20618;-85
2023/06/10 06:18:26;;;;;;;17.43;16.67;;;20.10;99.90;;;;;;5053329;28;20444;-86
2023/06/10 06:20:54;;;;;;;16.40;15.70;;;20.20;99.90;;;;;;5056008;28;20462;-86
2023/06/10 06:23:22;;;;;;;17.40;16.70;;;20.20;99.90;;;;;;5056673;28;20912;-85
2023/06/10 06:25:50;;;;;;;17.47;16.73;;;20.30;99.90;;;;;;5056013;28;20495;-86
2023/06/10 06:28:20;;;;;;;17.17;16.47;;;20.20;99.90;;;;;;5053374;28;20452;-85
2023/06/10 06:30:49;;;;;;;17.80;16.80;;;20.20;99.90;;;;;;5056517;28;20471;-85
2023/06/10 06:33:18;;;;;;;18.00;17.30;;;20.30;99.90;;;;;;5056144;28;20449;-85
2023/06/10 06:35:46;;;;;;;17.80;17.00;;;20.40;99.90;;;;;;5057109;28;21513;-86
2023/06/10 06:38:15;;;;;;;18.27;17.47;;;20.40;99.90;;;;;;5035628;28;20466;-84
2023/06/10 06:40:43;;;;;;;18.10;17.27;;;20.50;99.90;;;;;;5030017;28;20460;-87
2023/06/10 06:43:11;;;;;;;17.83;17.03;;;20.50;99.90;;;;;;5073739;28;20513;-84
2023/06/10 06:45:39;;;;;;;18.23;17.43;;;20.60;99.90;;;;;;5058266;28;20452;-84
2023/06/10 06:48:07;;;;;;;18.53;17.63;;;20.70;99.90;;;;;;5037929;28;20458;-84
2023/06/10 06:50:37;;;;;;;18.23;17.37;;;20.80;99.90;;;;;;5056741;28;20508;-84
2023/06/10 06:53:05;;;;;;;18.00;17.10;;;20.80;99.90;;;;;;5057678;28;20454;-84
2023/06/10 06:55:33;;;;;;;17.83;17.03;;;20.90;99.90;;;;;;5057377;28;20473;-86
2023/06/10 06:58:03;;;;;;;17.77;17.07;;;20.90;99.90;;;;;;5058026;28;21067;-85
2023/06/10 07:00:32;;;;;;;18.60;17.80;;;21.00;99.90;;;;;;5056080;28;20454;-86
2023/06/10 07:03:00;;;;;;;19.03;18.10;;;21.10;99.90;;;;;;5053708;28;20459;-84
2023/06/10 07:05:29;;;;;;;19.90;19.10;;;21.10;99.90;;;;;;5056973;28;20446;-84
2023/06/10 07:07:59;;;;;;;18.60;17.90;;;21.20;99.90;;;;;;5061621;28;20450;-84
2023/06/10 07:10:28;;;;;;;19.73;18.83;;;21.20;99.90;;;;;;5060673;28;20450;-85
2023/06/10 07:12:56;;;;;;;19.83;18.83;;;21.30;99.90;;;;;;5058257;28;20462;-82
2023/06/10 07:15:24;;;;;;;18.17;17.47;;;21.40;99.90;;;;;;5059354;28;20462;-86
2023/06/10 07:17:52;;;;;;;18.90;17.90;;;21.40;99.90;;;;;;5064094;28;20985;-84
2023/06/10 07:20:20;;;;;;;17.87;17.17;;;21.40;99.90;;;;;;5061867;28;20512;-83
2023/06/10 07:22:48;;;;;;;19.00;18.17;;;21.50;99.90;;;;;;5064332;28;20450;-84
2023/06/10 07:25:18;;;;;;;19.63;18.83;;;21.60;99.90;;;;;;5064723;28;20459;-84
2023/06/10 07:27:46;;;;;;;18.50;17.80;;;21.60;99.90;;;;;;5063868;28;20454;-84
2023/06/10 07:30:14;;;;;;;19.07;18.37;;;21.60;99.90;;;;;;5064009;28;20452;-85
2023/06/10 07:32:43;;;;;;;19.23;18.23;;;21.70;99.90;;;;;;5065539;28;20456;-83
2023/06/10 07:35:12;;;;;;;18.73;17.93;;;21.70;99.90;;;;;;5067453;28;20515;-83
2023/06/10 07:37:40;;;;;;;19.30;18.40;;;21.70;99.90;;;;;;5066676;28;20490;-83
2023/06/10 07:40:09;;;;;;;19.33;18.33;;;21.80;99.90;;;;;;5069436;28;20533;-84
2023/06/10 07:42:39;;;;;;;20.07;18.93;;;21.80;99.90;;;;;;5064908;28;20458;-81
2023/06/10 07:45:08;;;;;;;19.20;18.40;;;21.90;99.90;;;;;;5065913;28;20458;-82
2023/06/10 07:47:37;;;;;;;18.80;18.00;;;22.00;99.90;;;;;;5055394;28;20480;-86
2023/06/10 07:50:05;;;;;;;19.57;18.37;;;22.10;99.90;;;;;;5039161;28;20846;-85
2023/06/10 07:52:34;;;;;;;19.23;18.43;;;22.10;99.90;;;;;;5057192;28;20477;-82
2023/06/10 07:55:02;;;;;;;18.80;18.07;;;22.20;99.90;;;;;;5061660;28;20545;-82
2023/06/10 07:57:31;;;;;;;19.37;18.50;;;22.20;99.90;;;;;;5059208;28;20580;-84
2023/06/10 08:00:57;;;;;;;18.90;18.10;;;22.20;99.90;;;;;;5050499;28;20473;-82
2023/06/10 08:03:36;;;;;;;18.47;17.77;;;22.30;99.90;;;;;;5057234;28;20465;-85
2023/06/10 08:06:17;;;;;;;18.57;17.77;;;22.30;99.90;;;;;;5045066;28;21012;-84
2023/06/10 08:12:01;;;;;;;19.27;17.97;;;22.40;99.90;;;;;;5058089;28;20497;-84
2023/06/10 08:14:42;;;;;;;18.53;17.73;;;22.50;99.90;;;;;;5041448;28;20500;-83
2023/06/10 08:17:11;;;;;;;18.53;17.83;;;22.50;99.90;;;;;;5054975;28;20485;-80
2023/06/10 08:19:41;;;;;;;18.30;17.40;;;22.50;99.90;;;;;;5054481;28;20462;-80
2023/06/10 08:22:09;;;;;;;18.73;17.83;;;22.50;99.90;;;;;;5050900;28;20460;-82
2023/06/10 08:24:38;;;;;;;17.60;16.90;;;22.60;99.90;;;;;;5056201;28;20824;-78
2023/06/10 08:27:07;;;;;;;18.83;18.10;;;22.60;99.90;;;;;;5058698;28;20566;-83
2023/06/10 08:29:35;;;;;;;18.90;18.03;;;22.60;99.90;;;;;;5058859;28;20439;-81
2023/06/10 08:32:03;;;;;;;18.43;17.63;;;22.60;99.90;;;;;;5063239;28;20465;-82
2023/06/10 08:34:35;;;;;;;18.93;18.23;;;22.70;99.90;;;;;;5055112;28;20467;-80
2023/06/10 08:37:05;;;;;;;19.17;18.37;;;22.80;99.90;;;;;;5056855;28;20560;-79
2023/06/10 08:39:33;;;;;;;19.53;18.60;;;22.80;99.90;;;;;;5056666;28;20511;-81
2023/06/10 08:42:10;;;;;;;19.93;19.13;;;22.80;99.90;;;;;;5054382;28;20467;-81
2023/06/10 08:44:40;;;;;;;19.47;18.77;;;22.90;99.90;;;;;;5052125;28;21034;-81
2023/06/10 08:47:14;;;;;;;18.80;17.90;;;22.90;99.90;;;;;;5053630;28;20477;-79
2023/06/10 08:49:45;;;;;;;19.37;18.57;;;23.00;99.90;;;;;;5053220;28;20462;-81
2023/06/10 08:52:17;;;;;;;19.00;18.20;;;23.00;99.90;;;;;;5053513;28;20451;-81
2023/06/10 08:54:53;;;;;;;19.63;18.73;;;23.10;99.90;;;;;;5068695;28;20498;-84
2023/06/10 08:57:22;;;;;;;19.10;18.30;;;23.10;99.90;;;;;;5051198;28;21452;-79
2023/06/10 08:59:50;;;;;;;18.40;17.80;;;23.10;99.90;;;;;;5053914;28;20688;-81
2023/06/10 09:02:20;;;;;;;19.10;18.30;;;23.10;99.90;;;;;;5050482;28;20454;-81
2023/06/10 09:04:54;;;;;;;18.10;17.40;;;23.10;99.90;;;;;;5057176;28;20473;-84
2023/06/10 09:07:40;;;;;;;18.97;18.27;;;23.10;99.90;;;;;;5061941;28;21030;-84
2023/06/10 09:10:10;;;;;;;18.50;17.80;;;23.20;99.90;;;;;;5049559;28;20471;-82
2023/06/10 09:12:38;;;;;;;17.87;17.17;;;23.20;99.90;;;;;;5055291;28;21125;-82
2023/06/10 09:15:08;;;;;;;18.40;17.70;;;23.20;99.90;;;;;;5057262;28;20545;-81
2023/06/10 09:17:37;;;;;;;17.90;17.23;;;23.20;99.90;;;;;;5052711;28;20869;-83
2023/06/10 09:20:07;;;;;;;17.93;17.33;;;23.30;99.90;;;;;;5051890;28;21036;-84
2023/06/10 09:22:39;;;;;;;17.57;16.93;;;23.30;99.90;;;;;;5051209;28;20444;-83
2023/06/10 09:25:09;;;;;;;18.83;18.13;;;23.30;99.90;;;;;;5055497;28;20465;-82
2023/06/10 09:27:49;;;;;;;17.40;16.80;;;23.40;99.90;;;;;;5055025;28;20549;-81
2023/06/10 09:30:27;;;;;;;20.23;18.87;;;23.40;99.90;;;;;;5052566;28;20451;-82
2023/06/10 09:32:56;;;;;;;18.52;17.75;;;23.40;99.90;;;;;;5052268;28;21026;-86
2023/06/10 09:35:27;;;;;;;17.83;17.13;;;23.40;99.90;;;;;;5048900;28;20459;-82
2023/06/10 09:38:06;;;;;;;19.40;18.60;;;23.60;99.90;;;;;;5052462;28;20261;-87
2023/06/10 09:40:49;;;;;;;18.87;18.00;;;23.70;99.90;;;;;;5050260;28;20450;-86
2023/06/10 09:43:20;;;;;;;17.93;17.30;;;23.80;99.90;;;;;;5054067;28;20511;-86
2023/06/10 09:46:01;;;;;;;18.43;17.73;;;23.80;99.90;;;;;;5053861;28;20470;-86
2023/06/10 09:48:37;;;;;;;18.97;18.23;;;23.80;99.90;;;;;;5070397;28;22639;-86
2023/06/10 09:51:09;;;;;;;18.03;17.40;;;23.80;99.90;;;;;;5053474;28;20543;-87
2023/06/10 09:53:39;;;;;;;18.60;17.90;;;23.80;99.90;;;;;;5054801;28;20578;-88
2023/06/10 09:56:08;;;;;;;19.00;18.30;;;23.80;99.90;;;;;;5039198;28;20499;-86
2023/06/10 09:58:43;;;;;;;18.60;17.90;;;23.80;99.90;;;;;;5055788;28;20483;-87
2023/06/10 10:01:20;;;;;;;18.80;18.00;;;23.80;99.90;;;;;;5051746;28;20556;-87
2023/06/10 10:04:28;;;;;;;19.53;18.53;;;23.90;99.90;;;;;;5053954;28;20462;-87
2023/06/10 10:07:00;;;;;;;19.00;18.20;;;24.00;99.90;;;;;;5050574;28;21042;-87
2023/06/10 10:09:30;;;;;;;19.77;18.93;;;24.10;99.90;;;;;;5053200;28;21256;-88
2023/06/10 10:12:00;;;;;;;18.10;17.33;;;24.10;99.90;;;;;;5056084;28;20493;-87
2023/06/10 10:14:35;;;;;;;18.70;17.98;;;24.10;99.90;;;;;;5048611;28;20531;-87
2023/06/10 10:17:15;;;;;;;17.90;17.10;;;24.00;99.90;;;;;;5056123;28;20224;-86
2023/06/10 10:19:50;;;;;;;17.60;16.90;;;24.00;99.90;;;;;;5054151;28;20948;-87
2023/06/10 10:22:38;;;;;;;17.50;16.70;;;24.20;99.90;;;;;;5043492;28;20478;-87
2023/06/10 10:25:13;;;;;;;17.93;17.13;;;24.20;99.90;;;;;;5051343;28;20472;-85
2023/06/10 10:27:49;;;;;;;18.10;17.30;;;24.20;99.90;;;;;;5055358;28;20465;-87
2023/06/10 10:30:18;;;;;;;18.30;17.33;;;24.20;99.90;;;;;;5053659;28;20505;-85
2023/06/10 10:32:57;;;;;;;17.67;16.97;;;24.10;99.90;;;;;;5053766;28;20592;-86
2023/06/10 10:35:26;;;;;;;17.30;16.43;;;24.10;99.90;;;;;;5055133;28;20469;-84
2023/06/10 10:37:55;;;;;;;17.17;16.47;;;24.10;99.90;;;;;;5070109;28;20481;-86
2023/06/10 10:40:29;;;;;;;16.90;16.30;;;24.20;99.90;;;;;;5050541;28;20458;-84
2023/06/10 10:43:02;;;;;;;17.03;16.23;;;24.10;99.90;;;;;;5035292;28;20451;-85
2023/06/10 10:45:30;;;;;;;15.73;15.13;;;24.10;99.90;;;;;;5051865;28;21083;-85
2023/06/10 10:47:59;;;;;;;16.27;15.67;;;24.10;99.90;;;;;;5051286;28;20450;-86
2023/06/10 10:50:30;;;;;;;17.20;16.20;;;24.10;99.90;;;;;;5040768;28;20540;-87
2023/06/10 10:53:02;;;;;;;18.00;17.30;;;24.10;99.90;;;;;;5056357;28;20465;-86
2023/06/10 10:55:38;;;;;;;18.13;17.33;;;24.00;99.90;;;;;;5072884;28;20478;-86
2023/06/10 10:58:08;;;;;;;17.33;16.70;;;24.10;99.90;;;;;;5058006;28;20603;-86
2023/06/10 11:00:54;;;;;;;16.50;15.90;;;24.20;99.90;;;;;;5054923;28;20440;-84
2023/06/10 11:03:22;;;;;;;15.97;15.47;;;24.30;99.90;;;;;;5061422;28;20459;-86
2023/06/10 11:05:53;;;;;;;16.40;15.80;;;24.30;99.90;;;;;;5054401;28;20554;-84
2023/06/10 11:08:50;;;;;;;17.20;16.43;;;24.30;99.90;;;;;;5056883;28;20539;-84
2023/06/10 11:11:22;;;;;;;16.40;15.80;;;24.40;99.90;;;;;;5060476;28;20505;-85
2023/06/10 11:14:06;;;;;;;16.70;16.00;;;24.30;99.90;;;;;;5055698;28;21046;-86
2023/06/10 11:16:44;;;;;;;16.23;15.50;;;24.30;99.90;;;;;;5056424;28;20475;-86
2023/06/10 11:19:33;;;;;;;15.60;15.10;;;24.40;99.90;;;;;;5054063;28;20446;-85
2023/06/10 11:22:02;;;;;;;15.97;15.30;;;24.50;99.90;;;;;;5059107;28;20451;-85
2023/06/10 11:24:31;;;;;;;16.80;16.10;;;24.50;99.90;;;;;;5061149;28;20798;-85
2023/06/10 11:27:19;;;;;;;16.20;15.40;;;24.60;99.90;;;;;;5041349;28;20477;-84
2023/06/10 11:29:58;;;;;;;18.27;17.33;;;24.50;99.90;;;;;;5057763;28;20459;-84
2023/06/10 11:32:31;;;;;;;16.30;15.70;;;24.50;99.90;;;;;;5057696;28;20545;-86
2023/06/10 11:35:00;;;;;;;16.50;15.83;;;24.50;99.90;;;;;;5044857;28;20461;-84
2023/06/10 11:37:29;;;;;;;16.97;16.17;;;24.50;99.90;;;;;;5052955;28;20479;-83
2023/06/10 11:39:57;;;;;;;17.03;16.27;;;24.50;99.90;;;;;;5056726;28;20958;-85
2023/06/10 11:42:27;;;;;;;17.87;16.70;;;24.50;99.90;;;;;;5053947;28;20452;-84
2023/06/10 11:44:55;;;;;;;17.03;16.40;;;24.60;99.90;;;;;;5052393;28;20525;-85
2023/06/10 11:47:23;;;;;;;16.77;16.03;;;24.60;99.90;;;;;;5052043;28;21022;-85
2023/06/10 11:49:57;;;;;;;17.17;16.40;;;24.50;99.90;;;;;;5028000;28;20508;-86
2023/06/10 11:52:28;;;;;;;17.63;16.77;;;24.50;99.90;;;;;;5059623;28;20467;-85
2023/06/10 11:54:56;;;;;;;17.30;16.60;;;24.50;99.90;;;;;;5057611;28;20457;-86
2023/06/10 11:57:24;;;;;;;17.20;16.60;;;24.50;99.90;;;;;;5054827;28;20848;-84
2023/06/10 11:59:54;;;;;;;16.70;16.00;;;24.50;99.90;;;;;;5037833;28;20561;-85
2023/06/10 12:02:22;;;;;;;17.37;16.63;;;24.50;99.90;;;;;;5053815;28;20483;-86
2023/06/10 12:04:50;;;;;;;17.07;16.33;;;24.60;99.90;;;;;;5058262;28;20464;-86
2023/06/10 12:07:21;;;;;;;17.63;16.43;;;24.60;99.90;;;;;;5059847;28;20470;-89
2023/06/10 12:10:00;;;;;;;16.97;16.17;;;24.70;99.90;;;;;;5054401;28;20729;-85
2023/06/10 12:12:46;;;;;;;17.73;16.83;;;24.70;99.90;;;;;;5062043;28;20451;-85
2023/06/10 12:15:24;;;;;;;18.90;17.70;;;24.60;99.90;;;;;;5041625;28;20485;-87
2023/06/10 12:17:52;;;;;;;18.03;17.00;;;24.70;99.90;;;;;;5058043;28;20463;-83
2023/06/10 12:20:28;;;;;;;18.63;17.67;;;24.70;99.90;;;;;;5054986;28;20541;-85
2023/06/10 12:22:56;;;;;;;21.33;19.93;;;24.70;99.90;;;;;;5058633;28;20885;-85
2023/06/10 12:25:29;;;;;;;17.30;16.50;;;24.80;99.90;;;;;;5054511;28;20495;-84
2023/06/10 12:27:58;;;;;;;16.67;16.07;;;24.80;99.90;;;;;;5059100;28;20541;-83
2023/06/10 12:30:28;;;;;;;16.90;16.20;;;24.80;99.90;;;;;;5056311;28;20471;-85
2023/06/10 12:32:57;;;;;;;18.63;17.73;;;24.80;99.90;;;;;;5059937;28;20812;-85
2023/06/10 12:35:27;;;;;;;18.17;17.40;;;24.80;99.90;;;;;;5061936;28;20520;-84
2023/06/10 12:37:57;;;;;;;16.00;15.40;;;24.80;99.90;;;;;;5051631;28;20557;-84
2023/06/10 12:40:31;;;;;;;15.90;15.20;;;24.90;99.90;;;;;;5052248;28;20443;-85
2023/06/10 12:43:00;;;;;;;17.40;16.70;;;24.90;99.90;;;;;;5051964;28;20451;-85
2023/06/10 12:45:31;;;;;;;17.07;16.27;;;24.80;99.90;;;;;;5056960;28;20825;-84
2023/06/10 12:48:08;;;;;;;16.60;16.00;;;24.80;99.90;;;;;;5053989;28;20841;-84